Latest Coastal Weather Observations for Newcastle Nobbys

IDN60701

Issued at 2:12 pm EST Saturday 28 May 2016 (issued every 10 minutes, with the page automatically refreshed every 10 minutes)

About coastal observations | Map of coastal stations | Coastal observations for NSW | Marine services | Other Formats
Station Details ID: 061055 Name: NEWCASTLE NOBBYS SIGNAL STATION AWS Lat: -32.92 Lon: 151.80 Height: 33.0 m
Data from the previous 72 hours. | See also: Recent months at Newcastle Nobbys
Date/Time
EST
Temp

°C
Wind Pressure Rain
since 9am
mm
Weather Cloud Vis
km
Sea
Height
m
Swell
Dir
 
Speed
knots
Gust
knots
hPa Trend Height
m
Period
s
Dir
28/02:00pm 17.9 WNW 20 25 - - 0.2 - - - - - - -
28/01:30pm 17.2 WNW 18 23 - - 0.2 - - - - - - -
28/01:00pm 17.3 WNW 19 28 - - 0.2 - - - - - - -
28/12:39pm 16.6 WNW 15 29 - - 0.2 - - - - - - -
28/12:30pm 16.5 WNW 14 19 - - 0.2 - - - - - - -
28/12:00pm 14.9 NW 20 27 - - 0.2 - - - - - - -
28/11:30am 15.2 NW 19 25 - - 0.2 - - - - - - -
28/11:00am 15.6 WNW 18 27 - - 0.2 - - - - - - -
28/10:30am 14.9 WNW 18 26 - - 0.2 - - - - - - -
28/10:00am 13.9 WNW 19 26 - - 0.2 - - - - - - -
28/09:30am 12.8 WNW 17 22 - - 0.2 - - - - - - -
28/09:00am 13.3 NW 22 31 - - 0.0 - - - - - - -
28/08:56am 13.5 NW 21 30 - - 0.0 - - - - - - -
28/08:30am 14.4 NW 13 19 - - 0.0 - - - - - - -
28/08:00am 12.8 WNW 5 12 - - 0.0 - - - - - - -
28/07:30am 12.7 NW 4 7 - - 0.0 - - - - - - -
28/07:00am 12.4 NW 10 14 - - 0.0 - - - - - - -
28/06:30am 12.4 WNW 13 17 - - 0.0 - - - - - - -
28/06:00am 12.5 WNW 16 24 - - 0.0 - - - - - - -
28/05:30am 12.4 WNW 18 25 - - 0.0 - - - - - - -
28/05:00am 12.5 WNW 15 21 - - 0.0 - - - - - - -
28/04:30am 12.2 WNW 13 16 - - 0.0 - - - - - - -
28/04:00am 12.2 WNW 11 16 - - 0.0 - - - - - - -
28/03:30am 12.1 WNW 11 15 - - 0.0 - - - - - - -
28/03:00am 12.3 WNW 12 16 - - 0.0 - - - - - - -
28/02:30am 12.6 WNW 13 18 - - 0.0 - - - - - - -
28/02:00am 12.6 WNW 17 23 - - 0.0 - - - - - - -
28/01:30am 12.8 WNW 18 24 - - 0.0 - - - - - - -
28/01:00am 12.8 WNW 19 25 - - 0.0 - - - - - - -
28/12:30am 12.7 WNW 19 25 - - 0.0 - - - - - - -
28/12:00am 12.8 WNW 18 24 - - 0.0 - - - - - - -
 
Date/Time
EST
Temp

°C
Wind Pressure Rain
since 9am
mm
Weather Cloud Vis
km
Sea
Height
m
Swell
Dir
 
Speed
knots
Gust
knots
hPa Trend Height
m
Period
s
Dir
27/11:30pm 13.0 WNW 17 22 - - 0.0 - - - - - - -
27/11:00pm 13.0 WNW 17 22 - - 0.0 - - - - - - -
27/10:30pm 13.3 WNW 16 20 - - 0.0 - - - - - - -
27/10:00pm 13.5 WNW 16 23 - - 0.0 - - - - - - -
27/09:30pm 13.7 WNW 15 22 - - 0.0 - - - - - - -
27/09:00pm 14.0 WNW 17 24 - - 0.0 - - - - - - -
27/08:30pm 14.5 WNW 18 24 - - 0.0 - - - - - - -
27/08:00pm 14.8 WNW 16 25 - - 0.0 - - - - - - -
27/07:55pm 14.8 WNW 15 25 - - 0.0 - - - - - - -
27/07:30pm 15.1 WNW 19 27 - - 0.0 - - - - - - -
27/07:00pm 15.5 WNW 20 29 - - 0.0 - - - - - - -
27/06:30pm 15.7 WNW 15 22 - - 0.0 - - - - - - -
27/06:00pm 15.9 WNW 12 18 - - 0.0 - - - - - - -
27/05:30pm 16.5 WNW 17 24 - - 0.0 - - - - - - -
27/05:03pm 17.0 WNW 18 28 - - 0.0 - - - - - - -
27/05:00pm 17.1 WNW 19 28 - - 0.0 - - - - - - -
27/04:40pm 17.6 WNW 17 27 - - 0.0 - - - - - - -
27/04:30pm 17.9 WNW 17 25 - - 0.0 - - - - - - -
27/04:00pm 18.7 W 24 33 - - 0.0 - - - - - - -
27/03:30pm 19.4 W 25 33 - - 0.0 - - - - - - -
27/03:09pm 19.6 W 22 32 - - 0.0 - - - - - - -
27/03:00pm 19.7 W 24 32 - - 0.0 - - - - - - -
27/02:30pm 20.0 W 23 30 - - 0.0 - - - - - - -
27/02:00pm 19.3 WNW 17 27 - - 0.0 - - - - - - -
27/01:30pm 18.6 NW 20 28 - - 0.0 - - - - - - -
27/01:06pm 18.3 WNW 22 32 - - 0.0 - - - - - - -
27/01:00pm 18.0 WNW 22 31 - - 0.0 - - - - - - -
27/12:30pm 17.4 NW 22 29 - - 0.0 - - - - - - -
27/12:00pm 17.3 WNW 22 31 - - 0.0 - - - - - - -
27/11:33am 16.8 NW 22 32 - - 0.0 - - - - - - -
27/11:30am 16.8 WNW 22 29 - - 0.0 - - - - - - -
27/11:04am 16.5 NW 18 29 - - 0.0 - - - - - - -
27/11:00am 16.4 NW 18 28 - - 0.0 - - - - - - -
27/10:30am 16.2 WNW 20 29 - - 0.0 - - - - - - -
27/10:14am 15.9 NW 19 29 - - 0.0 - - - - - - -
27/10:00am 15.9 WNW 18 26 - - 0.0 - - - - - - -
27/09:30am 15.4 NW 22 28 - - 0.0 - - - - - - -
27/09:00am 14.6 NW 22 31 - - 0.4 - - - - - - -
27/08:30am 14.1 NW 20 28 - - 0.4 - - - - - - -
27/08:00am 13.3 NW 20 26 - - 0.4 - - - - - - -
27/07:30am 12.9 NW 15 20 - - 0.4 - - - - - - -
27/07:00am 12.6 NW 15 21 - - 0.4 - - - - - - -
27/06:30am 12.6 NW 15 20 - - 0.4 - - - - - - -
27/06:00am 12.8 NW 16 22 - - 0.4 - - - - - - -
27/05:30am 13.2 NW 14 18 - - 0.4 - - - - - - -
27/05:00am 13.4 NW 12 16 - - 0.4 - - - - - - -
27/04:30am 13.5 WNW 12 16 - - 0.4 - - - - - - -
27/04:00am 13.8 WNW 10 13 - - 0.4 - - - - - - -
27/03:30am 14.0 WNW 8 11 - - 0.4 - - - - - - -
27/03:00am 14.1 WNW 10 13 - - 0.4 - - - - - - -
27/02:30am 14.7 WNW 9 13 - - 0.4 - - - - - - -
27/02:00am 15.0 NW 12 17 - - 0.4 - - - - - - -
27/01:30am 15.3 NW 15 19 - - 0.4 - - - - - - -
27/01:00am 15.6 NW 13 16 - - 0.4 - - - - - - -
27/12:30am 15.7 NW 14 17 - - 0.4 - - - - - - -
27/12:00am 15.9 WNW 11 15 - - 0.4 - - - - - - -
 
Date/Time
EST
Temp

°C
Wind Pressure Rain
since 9am
mm
Weather Cloud Vis
km
Sea
Height
m
Swell
Dir
 
Speed
knots
Gust
knots
hPa Trend Height
m
Period
s
Dir
26/11:30pm 16.3 WNW 12 16 - - 0.4 - - - - - - -
26/11:00pm 16.4 WNW 12 18 - - 0.4 - - - - - - -
26/10:30pm 16.3 WNW 15 20 - - 0.4 - - - - - - -
26/10:00pm 16.3 WNW 14 20 - - 0.4 - - - - - - -
26/09:30pm 16.4 NW 17 23 - - 0.4 - - - - - - -
26/09:00pm 16.5 WNW 17 23 - - 0.4 - - - - - - -
26/08:30pm 16.5 WNW 17 22 - - 0.4 - - - - - - -
26/08:00pm 16.6 WNW 17 24 - - 0.4 - - - - - - -
26/07:30pm 16.7 WNW 17 23 - - 0.4 - - - - - - -
26/07:00pm 16.6 WNW 15 22 - - 0.4 - - - - - - -
26/06:30pm 16.7 NW 19 26 - - 0.4 - - - - - - -
26/06:00pm 16.8 NW 20 28 - - 0.4 - - - - - - -
26/05:30pm 17.1 NW 21 27 - - 0.4 - - - - - - -
26/05:00pm 17.6 NW 21 27 - - 0.4 - - - - - - -
26/04:30pm 18.2 NW 23 31 - - 0.4 - - - - - - -
26/04:00pm 18.6 NW 17 22 - - 0.4 - - - - - - -
26/03:30pm 18.3 NW 15 22 - - 0.4 - - - - - - -
26/03:00pm 18.2 WNW 16 20 - - 0.4 - - - - - - -
26/02:30pm 17.4 NW 16 23 - - 0.4 - - - - - - -
26/02:00pm 16.4 NW 19 23 - - 0.4 - - - - - - -
26/01:30pm 16.1 NW 18 25 - - 0.4 - - - - - - -
26/01:00pm 15.1 NW 17 24 - - 0.4 - - - - - - -
26/12:30pm 14.6 NW 19 24 - - 0.4 - - - - - - -
26/12:00pm 13.6 NW 19 26 - - 0.4 - - - - - - -
26/11:30am 13.9 NW 22 30 - - 0.4 - - - - - - -
26/11:00am 14.0 NW 19 24 - - 0.4 - - - - - - -
26/10:30am 14.1 NW 12 16 - - 0.0 - - - - - - -
26/10:00am 13.8 NNW 7 9 - - 0.0 - - - - - - -
26/09:30am 13.9 N 5 7 - - 0.0 - - - - - - -
26/09:00am 13.6 NNW 9 12 - - 0.6 - - - - - - -
26/08:30am 13.4 NNW 13 16 - - 0.6 - - - - - - -
26/08:00am 13.6 NW 11 14 - - 0.6 - - - - - - -
26/07:30am 12.8 N 10 13 - - 0.6 - - - - - - -
26/07:00am 12.8 N 10 13 - - 0.6 - - - - - - -
26/06:30am 13.2 NW 10 15 - - 0.6 - - - - - - -
26/06:00am 13.4 NW 4 6 - - 0.6 Rain - - - - - -
26/05:30am 13.6 NW 5 9 - - 0.4 - - - - - - -
26/05:00am 13.7 NW 4 7 - - 0.2 - - - - - - -
26/04:30am 13.6 NW 7 11 - - 0.2 - - - - - - -
26/04:00am 14.1 NW 8 11 - - 0.0 - - - - - - -
26/03:30am 15.2 NW 10 15 - - 0.0 - - - - - - -
26/03:00am 14.9 NNW 10 13 - - 0.0 - - - - - - -
26/02:30am 15.2 NNW 9 11 - - 0.0 - - - - - - -
26/02:00am 15.7 NW 12 15 - - 0.0 - - - - - - -
26/01:30am 15.6 NW 13 16 - - 0.0 - - - - - - -
26/01:00am 15.2 NW 14 17 - - 0.0 - - - - - - -
26/12:30am 15.3 NW 7 11 - - 0.0 - - - - - - -
26/12:00am 15.1 N 2 5 - - 0.0 - - - - - - -
 
Date/Time
EST
Temp

°C
Wind Pressure Rain
since 9am
mm
Weather Cloud Vis
km
Sea
Height
m
Swell
Dir
 
Speed
knots
Gust
knots
hPa Trend Height
m
Period
s
Dir
25/11:30pm 15.5 NW 8 13 - - 0.0 - - - - - - -
25/11:00pm 14.9 NW 9 12 - - 0.0 - - - - - - -
25/10:30pm 15.1 NW 9 11 - - 0.0 - - - - - - -
25/10:00pm 15.4 NW 8 10 - - 0.0 - - - - - - -
25/09:30pm 15.0 NNW 9 10 - - 0.0 - - - - - - -
25/09:00pm 15.2 N 4 5 - - 0.0 - - - - - - -
25/08:30pm 15.6 NNW 5 7 - - 0.0 - - - - - - -
25/08:00pm 16.1 N 9 11 - - 0.0 - - - - - - -
25/07:30pm 16.0 N 8 11 - - 0.0 - - - - - - -
25/07:00pm 16.8 NNE 7 8 - - 0.0 - - - - - - -
25/06:30pm 17.8 NNE 5 7 - - 0.0 - - - - - - -
25/06:00pm 17.4 NE 4 6 - - 0.0 - - - - - - -
25/05:30pm 17.3 E 5 7 - - 0.0 - - - - - - -
25/05:00pm 17.2 ESE 5 7 - - 0.0 - - - - - - -
25/04:30pm 17.6 ESE 5 6 - - 0.0 - - - - - - -
25/04:00pm 17.9 ESE 4 5 - - 0.0 - - - - - - -
25/03:30pm 18.2 ESE 4 5 - - 0.0 - - - - - - -
25/03:00pm 18.7 ESE 6 7 - - 0.0 - - - - - - -
25/02:30pm 18.4 ESE 6 7 - - 0.0 - - - - - - -

Other Formats:

Comma delimited format used in spreadsheet applications
http://www.bom.gov.au/fwo/IDN60701/IDN60701.94774.axf

JavaScript Object Notation format (JSON) in row-major order
http://www.bom.gov.au/fwo/IDN60701/IDN60701.94774.json